Time;durP1;ratioP1;P1;durP2;ratioP2;P2;SDS_P1;SDS_P2;PMS_P1;PMS_P2;Temp;Humidity;BMP_temperature;BMP_pressure;BME280_temperature;BME280_humidity;BME280_pressure;Samples;Min_cycle;Max_cycle;Signal;HPM_P1;HPM_P2
2022/10/12 00:01:41;;;;;;;21.73;19.38;;;;;;;13.59;80.81;95494.09;5139555;27;20183;-70
2022/10/12 00:04:08;;;;;;;23.33;19.55;;;;;;;13.58;81.12;95495.25;5139015;27;20179;-70
2022/10/12 00:06:35;;;;;;;22.33;19.65;;;;;;;13.57;81.27;95499.19;5120502;27;20558;-70
2022/10/12 00:09:01;;;;;;;21.98;19.38;;;;;;;13.56;81.54;95494.81;5120527;27;20206;-70
2022/10/12 00:11:30;;;;;;;22.08;19.67;;;;;;;13.54;81.49;95497.94;5120996;27;20195;-70
2022/10/12 00:13:57;;;;;;;22.55;19.58;;;;;;;13.55;81.60;95496.78;5120814;27;20195;-70
2022/10/12 00:16:30;;;;;;;22.90;19.92;;;;;;;13.56;81.43;95492.03;5138855;27;20175;-70
2022/10/12 00:18:57;;;;;;;24.98;20.98;;;;;;;13.57;81.50;95488.09;5120952;27;20605;-70
2022/10/12 00:21:26;;;;;;;22.25;19.85;;;;;;;13.56;81.12;95490.06;5121475;27;20191;-70
2022/10/12 00:23:53;;;;;;;22.58;19.80;;;;;;;13.56;81.45;95490.06;5138961;27;20194;-70
2022/10/12 00:26:21;;;;;;;21.33;19.10;;;;;;;13.55;81.33;95493.22;5120248;27;20223;-70
2022/10/12 00:28:48;;;;;;;23.23;19.65;;;;;;;13.55;81.59;95487.69;5138484;27;20604;-70
2022/10/12 00:31:17;;;;;;;21.98;19.60;;;;;;;13.52;81.70;95488.41;5120866;27;20195;-71
2022/10/12 00:33:46;;;;;;;23.73;20.52;;;;;;;13.52;81.70;95488.41;5138655;27;20191;-70
2022/10/12 00:36:14;;;;;;;23.35;19.92;;;;;;;13.53;81.97;95487.22;5138589;27;20195;-70
2022/10/12 00:38:41;;;;;;;23.10;20.10;;;;;;;13.52;81.73;95485.63;5138557;27;20187;-70
2022/10/12 00:41:08;;;;;;;22.83;20.08;;;;;;;13.51;81.84;95478.47;5138452;27;20186;-70
2022/10/12 00:43:37;;;;;;;21.73;19.40;;;;;;;13.50;81.89;95480.44;5138589;27;20183;-70
2022/10/12 00:46:07;;;;;;;22.95;20.30;;;;;;;13.52;81.64;95477.31;5120398;27;20250;-72
2022/10/12 00:48:33;;;;;;;25.95;21.33;;;;;;;13.51;81.50;95481.22;5120372;27;20210;-70
2022/10/12 00:51:03;;;;;;;22.70;20.25;;;;;;;13.52;81.67;95485.63;5120349;27;20561;-70
2022/10/12 00:53:34;;;;;;;23.80;21.05;;;;;;;13.54;81.70;95480.50;5120331;27;20613;-70
2022/10/12 00:56:03;;;;;;;23.92;21.30;;;;;;;13.53;81.88;95476.94;5138173;27;20187;-70
2022/10/12 00:58:31;;;;;;;23.65;20.35;;;;;;;13.54;81.57;95480.50;5138165;27;20183;-71
2022/10/12 01:00:59;;;;;;;23.92;21.10;;;;;;;13.51;81.50;95473.75;5119921;27;20225;-71
2022/10/12 01:03:26;;;;;;;22.92;19.95;;;;;;;13.52;81.62;95478.09;5119816;27;20203;-71
2022/10/12 01:05:53;;;;;;;23.80;21.25;;;;;;;13.51;81.75;95481.22;5119880;27;20199;-72
2022/10/12 01:08:22;;;;;;;24.73;21.23;;;;;;;13.51;81.71;95482.06;5120199;27;20199;-71
2022/10/12 01:10:48;;;;;;;22.95;20.42;;;;;;;13.50;81.47;95483.19;5137821;27;20179;-70
2022/10/12 01:13:15;;;;;;;26.00;21.17;;;;;;;13.49;81.72;95482.41;5120164;27;20194;-70
2022/10/12 01:15:54;;;;;;;24.27;19.98;;;;;;;13.49;82.03;95485.16;5137824;27;20183;-71
2022/10/12 01:18:25;;;;;;;24.60;21.00;;;;;;;13.50;81.74;95485.97;5137476;27;20248;-71
2022/10/12 01:21:00;;;;;;;23.48;20.15;;;;;;;13.48;81.47;95480.81;5137128;27;20179;-71
2022/10/12 01:24:01;;;;;;;23.50;19.70;;;;;;;13.48;81.29;95486.34;5137666;27;20195;-71
2022/10/12 01:26:41;;;;;;;26.00;21.38;;;;;;;13.47;81.39;95473.66;5119189;27;20213;-71
2022/10/12 01:29:21;;;;;;;26.25;21.00;;;;;;;13.45;81.46;95475.97;5137515;27;20190;-70
2022/10/12 01:31:53;;;;;;;24.40;20.75;;;;;;;13.46;81.58;95476.78;5119591;27;20228;-70
2022/10/12 01:34:22;;;;;;;22.77;20.38;;;;;;;13.46;81.50;95483.13;5137582;27;20191;-71
2022/10/12 01:36:52;;;;;;;24.77;21.42;;;;;;;13.45;81.28;95483.50;5119251;27;20191;-70
2022/10/12 01:39:25;;;;;;;22.58;20.15;;;;;;;13.42;81.43;95475.91;5137116;27;20522;-70
2022/10/12 01:41:55;;;;;;;25.02;20.88;;;;;;;13.40;81.53;95479.03;5137355;27;20183;-70
2022/10/12 01:44:23;;;;;;;22.67;20.30;;;;;;;13.38;81.67;95481.34;5137232;27;20183;-70
2022/10/12 01:46:52;;;;;;;23.10;20.02;;;;;;;13.40;81.81;95484.59;5119151;27;20221;-70
2022/10/12 01:49:22;;;;;;;23.38;20.45;;;;;;;13.39;81.94;95491.25;5137271;27;20183;-70
2022/10/12 01:52:21;;;;;;;23.77;20.50;;;;;;;13.39;81.60;95480.19;5119076;27;20203;-70
2022/10/12 01:54:58;;;;;;;22.67;20.20;;;;;;;13.38;81.89;95477.78;5129666;27;20240;-71
2022/10/12 01:57:32;;;;;;;23.33;20.52;;;;;;;13.37;81.62;95478.97;5119333;27;20190;-71
2022/10/12 02:00:04;;;;;;;23.83;20.67;;;;;;;13.37;81.82;95482.53;5137041;27;20244;-70
2022/10/12 02:02:35;;;;;;;22.00;19.50;;;;;;;13.39;81.71;95482.94;5119047;27;20637;-70
2022/10/12 02:05:08;;;;;;;23.33;20.50;;;;;;;13.38;81.31;95484.13;5136965;27;20189;-70
2022/10/12 02:07:40;;;;;;;23.45;20.20;;;;;;;13.38;81.33;95477.78;5136858;27;20203;-70
2022/10/12 02:10:10;;;;;;;25.88;20.52;;;;;;;13.37;81.48;95492.81;5119170;27;20195;-70
2022/10/12 02:12:39;;;;;;;24.52;20.20;;;;;;;13.35;81.54;95492.34;5136861;27;20206;-70
2022/10/12 02:15:08;;;;;;;22.77;20.25;;;;;;;13.35;81.63;95495.13;5136902;27;20592;-70
2022/10/12 02:17:38;;;;;;;24.17;20.92;;;;;;;13.35;81.74;95497.91;5136619;27;20179;-70
2022/10/12 02:20:07;;;;;;;22.55;20.15;;;;;;;13.34;81.94;95499.88;5119021;27;20214;-71
2022/10/12 02:22:35;;;;;;;23.42;19.85;;;;;;;13.31;81.74;95499.78;5118509;27;20202;-71
2022/10/12 02:25:04;;;;;;;24.65;20.80;;;;;;;13.29;81.80;95502.09;5136600;27;20191;-71
2022/10/12 02:27:33;;;;;;;22.02;19.73;;;;;;;13.29;82.02;95502.09;5136295;27;20230;-71
2022/10/12 02:29:59;;;;;;;23.80;20.95;;;;;;;13.28;82.02;95509.59;5136092;27;20190;-70
2022/10/12 02:32:30;;;;;;;25.77;21.33;;;;;;;13.26;81.96;95509.19;5136300;27;20587;-70
2022/10/12 02:35:03;;;;;;;24.67;20.60;;;;;;;13.28;82.37;95512.38;5118400;27;20199;-70
2022/10/12 02:37:35;;;;;;;23.50;21.00;;;;;;;13.28;82.57;95501.28;5136451;27;20190;-70
2022/10/12 02:40:09;;;;;;;23.23;20.83;;;;;;;13.29;82.56;95508.47;5118294;27;20198;-70
2022/10/12 02:42:40;;;;;;;24.25;21.10;;;;;;;13.30;82.15;95506.50;5118502;27;20191;-70
2022/10/12 02:45:09;;;;;;;25.40;21.42;;;;;;;13.29;82.28;95502.09;5101626;28;20202;-70
2022/10/12 02:47:36;;;;;;;24.70;22.00;;;;;;;13.28;82.57;95504.06;5117952;28;20221;-70
2022/10/12 02:50:06;;;;;;;24.70;20.70;;;;;;;13.29;82.33;95504.88;5136360;28;20183;-70
2022/10/12 02:52:33;;;;;;;23.38;20.80;;;;;;;13.30;82.73;95503.72;5118278;28;20231;-70
2022/10/12 02:55:00;;;;;;;25.75;22.60;;;;;;;13.28;82.35;95509.59;5118304;28;20194;-70
2022/10/12 02:57:27;;;;;;;23.77;20.90;;;;;;;13.29;82.53;95514.00;5118767;28;20222;-70
2022/10/12 02:59:54;;;;;;;24.08;21.48;;;;;;;13.30;82.29;95507.28;5135919;28;20507;-70
2022/10/12 03:02:21;;;;;;;26.65;21.95;;;;;;;13.29;82.64;95500.16;5136417;28;20183;-70
2022/10/12 03:04:48;;;;;;;25.83;22.35;;;;;;;13.28;82.82;95500.50;5117954;28;20202;-70
2022/10/12 03:07:16;;;;;;;25.02;21.75;;;;;;;13.30;82.87;95500.97;5117861;28;20223;-70
2022/10/12 03:09:43;;;;;;;24.70;21.63;;;;;;;13.29;82.85;95502.09;5136229;28;20183;-70
2022/10/12 03:12:10;;;;;;;23.77;20.80;;;;;;;13.30;83.02;95498.19;5136221;28;20179;-70
2022/10/12 03:14:36;;;;;;;24.65;20.95;;;;;;;13.29;83.05;95500.16;5117977;28;20187;-70
2022/10/12 03:17:04;;;;;;;23.73;20.63;;;;;;;13.28;83.08;95495.75;5118102;28;20195;-70
2022/10/12 03:19:31;;;;;;;25.42;22.08;;;;;;;13.30;83.33;95498.19;5118234;28;20194;-71
2022/10/12 03:21:57;;;;;;;24.15;21.50;;;;;;;13.28;83.20;95498.53;5136024;28;20214;-72
2022/10/12 03:24:25;;;;;;;25.48;21.10;;;;;;;13.28;83.34;95495.75;5118158;28;20199;-71
2022/10/12 03:26:52;;;;;;;22.83;20.35;;;;;;;13.26;83.42;95498.09;5117670;28;20218;-71
2022/10/12 03:29:19;;;;;;;23.88;20.65;;;;;;;13.25;83.54;95504.78;5117914;28;20199;-70
2022/10/12 03:31:46;;;;;;;24.80;21.63;;;;;;;13.22;83.54;95499.97;5135910;28;20291;-70
2022/10/12 03:34:13;;;;;;;24.45;21.10;;;;;;;13.21;83.42;95501.91;5117562;28;20191;-70
2022/10/12 03:36:39;;;;;;;24.45;21.80;;;;;;;13.19;83.81;95498.69;5135690;28;20587;-70
2022/10/12 03:39:06;;;;;;;25.85;21.40;;;;;;;13.19;83.79;95500.66;5135649;28;20190;-70
2022/10/12 03:41:34;;;;;;;21.73;19.42;;;;;;;13.19;83.94;95500.66;5118101;27;20190;-70
2022/10/12 03:44:02;;;;;;;22.90;20.33;;;;;;;13.18;83.71;95504.59;5121284;27;20203;-70
2022/10/12 03:46:29;;;;;;;23.75;21.20;;;;;;;13.19;83.77;95506.22;5121546;27;20203;-70
2022/10/12 03:48:55;;;;;;;26.20;20.67;;;;;;;13.18;83.80;95499.88;5139434;27;20207;-70
2022/10/12 03:51:22;;;;;;;23.85;20.58;;;;;;;13.17;84.03;95495.47;5139491;27;20606;-70
2022/10/12 03:53:49;;;;;;;23.67;20.25;;;;;;;13.16;83.80;95504.94;5123392;27;20242;-70
2022/10/12 03:56:16;;;;;;;23.75;21.02;;;;;;;13.15;84.05;95500.59;5101121;28;20207;-71
2022/10/12 03:58:44;;;;;;;24.80;22.20;;;;;;;13.16;84.04;95501.38;5100817;28;20200;-71
2022/10/12 04:01:11;;;;;;;24.65;20.80;;;;;;;13.14;83.98;95495.38;5100955;28;20203;-71
2022/10/12 04:03:38;;;;;;;24.88;21.58;;;;;;;13.12;83.77;95495.75;5118746;28;20192;-70
2022/10/12 04:06:05;;;;;;;27.00;22.52;;;;;;;13.12;83.85;95498.53;5118896;28;20184;-70
2022/10/12 04:08:32;;;;;;;25.30;21.27;;;;;;;13.11;83.78;95501.63;5100612;28;20216;-70
2022/10/12 04:10:59;;;;;;;26.42;22.27;;;;;;;13.09;84.06;95502.00;5118328;28;20187;-69
2022/10/12 04:13:25;;;;;;;26.95;21.58;;;;;;;13.09;83.86;95507.53;5100742;28;20195;-70
2022/10/12 04:15:54;;;;;;;25.33;21.48;;;;;;;13.10;83.72;95511.13;5118597;28;20184;-70
2022/10/12 04:18:21;;;;;;;29.90;23.48;;;;;;;13.09;84.06;95515.06;5118557;28;20274;-70
2022/10/12 04:20:48;;;;;;;26.45;22.60;;;;;;;13.08;84.17;95508.72;5100532;28;20203;-70
2022/10/12 04:23:15;;;;;;;27.75;23.42;;;;;;;13.07;84.34;95507.13;5118538;28;20573;-70
2022/10/12 04:25:42;;;;;;;27.85;22.27;;;;;;;13.06;84.34;95521.31;5118762;28;20207;-70
2022/10/12 04:28:09;;;;;;;27.38;21.83;;;;;;;13.08;84.16;95521.75;5099984;28;20219;-70
2022/10/12 04:30:36;;;;;;;24.63;21.30;;;;;;;13.09;84.20;95513.09;5118402;28;20188;-72
2022/10/12 04:33:05;;;;;;;26.42;22.30;;;;;;;13.11;83.85;95521.84;5118190;28;20499;-71
2022/10/12 04:35:32;;;;;;;26.00;22.00;;;;;;;13.11;83.81;95519.09;5100692;28;20192;-70
2022/10/12 04:37:58;;;;;;;26.08;21.92;;;;;;;13.11;83.57;95521.84;5118028;28;20184;-71
2022/10/12 04:40:25;;;;;;;27.02;22.95;;;;;;;13.12;83.57;95519.88;5100077;28;20197;-71
2022/10/12 04:42:52;;;;;;;25.92;21.90;;;;;;;13.13;83.33;95525.06;5099775;28;20200;-71
2022/10/12 04:45:19;;;;;;;23.65;20.52;;;;;;;13.12;83.41;95529.00;5118184;28;20188;-71
2022/10/12 04:47:46;;;;;;;24.45;21.38;;;;;;;13.13;83.40;95527.81;5117730;28;20680;-72
2022/10/12 04:50:14;;;;;;;24.25;20.85;;;;;;;13.13;83.50;95529.78;5099995;28;20207;-71
2022/10/12 04:52:41;;;;;;;23.23;20.73;;;;;;;13.08;83.25;95528.09;5123407;27;20231;-71
2022/10/12 04:55:09;;;;;;;23.83;20.90;;;;;;;13.05;82.96;95534.34;5137866;27;20202;-71
2022/10/12 04:57:35;;;;;;;24.15;21.55;;;;;;;13.04;83.28;95535.53;5138013;27;20187;-71
2022/10/12 05:00:02;;;;;;;27.70;21.60;;;;;;;13.05;83.55;95530.78;5120710;27;20202;-71
2022/10/12 05:02:29;;;;;;;26.90;22.08;;;;;;;13.06;83.72;95537.91;5137836;27;20591;-72
2022/10/12 05:04:56;;;;;;;26.23;23.23;;;;;;;13.03;83.24;95536.66;5119933;27;20191;-70
2022/10/12 05:07:25;;;;;;;26.98;22.30;;;;;;;13.06;83.59;95546.22;5120177;27;20223;-69
2022/10/12 05:09:52;;;;;;;30.92;23.52;;;;;;;13.06;83.73;95535.16;5137869;27;20188;-69
2022/10/12 05:12:19;;;;;;;26.40;22.77;;;;;;;13.09;83.65;95545.50;5137904;27;20650;-70
2022/10/12 05:14:46;;;;;;;24.80;22.17;;;;;;;13.10;83.48;95544.34;5119710;27;20630;-70
2022/10/12 05:17:13;;;;;;;23.45;20.88;;;;;;;13.13;83.81;95547.19;5119871;27;20202;-70
2022/10/12 05:19:39;;;;;;;25.52;21.67;;;;;;;13.16;83.60;95543.72;5119941;27;20198;-70
2022/10/12 05:22:06;;;;;;;23.52;21.00;;;;;;;13.17;83.32;95550.88;5138031;27;20183;-70
2022/10/12 05:24:34;;;;;;;23.80;21.05;;;;;;;13.20;83.48;95554.88;5137554;27;20524;-70
2022/10/12 05:27:01;;;;;;;23.83;21.42;;;;;;;13.22;83.16;95558.13;5119998;27;20206;-70
2022/10/12 05:29:28;;;;;;;25.55;21.92;;;;;;;13.24;82.93;95555.81;5119976;27;20214;-69
2022/10/12 05:31:55;;;;;;;24.60;21.15;;;;;;;13.26;82.99;95566.56;5137502;27;20650;-71
2022/10/12 05:34:22;;;;;;;22.92;20.65;;;;;;;13.24;82.74;95564.13;5119705;27;20203;-71
2022/10/12 05:36:49;;;;;;;23.00;20.50;;;;;;;13.25;82.97;95560.19;5119745;27;20209;-71
2022/10/12 05:39:16;;;;;;;24.70;20.83;;;;;;;13.27;83.09;95562.59;5137590;27;20191;-71
2022/10/12 05:41:44;;;;;;;21.52;19.25;;;;;;;13.29;82.89;95565.81;5137836;27;20187;-72
2022/10/12 05:44:11;;;;;;;22.38;19.98;;;;;;;13.28;82.85;95566.97;5137747;27;20195;-72
2022/10/12 05:46:37;;;;;;;23.42;20.92;;;;;;;13.30;82.87;95567.44;5137406;27;20195;-71
2022/10/12 05:49:05;;;;;;;23.25;20.80;;;;;;;13.33;82.78;95573.06;5136913;27;20214;-71
2022/10/12 05:51:32;;;;;;;25.45;20.63;;;;;;;13.35;82.53;95578.22;5119305;27;20618;-71
2022/10/12 05:53:59;;;;;;;23.48;20.95;;;;;;;13.34;82.55;95577.44;5118706;27;20287;-71
2022/10/12 05:56:26;;;;;;;23.10;20.73;;;;;;;13.34;82.25;95582.97;5119016;27;20195;-72
2022/10/12 05:58:54;;;;;;;22.98;20.63;;;;;;;13.35;82.35;95581.00;5119310;27;20187;-71
2022/10/12 06:01:21;;;;;;;23.92;21.05;;;;;;;13.35;82.61;95587.34;5118846;27;20205;-70
2022/10/12 06:03:48;;;;;;;25.73;22.63;;;;;;;13.33;82.47;95591.66;5137081;27;20191;-70
2022/10/12 06:06:14;;;;;;;24.02;21.52;;;;;;;13.32;82.51;95581.72;5118121;27;20203;-70
2022/10/12 06:08:41;;;;;;;23.95;21.50;;;;;;;13.31;82.07;95591.19;5136740;27;20213;-71
2022/10/12 06:11:08;;;;;;;22.27;19.90;;;;;;;13.33;82.49;95588.88;5119170;27;20595;-73
2022/10/12 06:13:35;;;;;;;22.50;20.20;;;;;;;13.36;82.71;95597.28;5136600;27;20611;-70
2022/10/12 06:16:03;;;;;;;22.98;20.40;;;;;;;13.39;82.74;95598.53;5136941;27;20194;-70
2022/10/12 06:18:30;;;;;;;23.60;21.00;;;;;;;13.40;82.80;95598.19;5136895;27;20179;-70
2022/10/12 06:20:57;;;;;;;22.23;19.92;;;;;;;13.44;82.83;95601.84;5136528;27;20175;-70
2022/10/12 06:23:23;;;;;;;23.92;20.92;;;;;;;13.44;83.04;95599.06;5136491;27;20183;-69
2022/10/12 06:25:51;;;;;;;23.75;21.08;;;;;;;13.46;82.81;95599.50;5119279;27;20202;-70
2022/10/12 06:28:20;;;;;;;21.30;19.02;;;;;;;13.48;82.86;95599.16;5136358;27;20203;-70
2022/10/12 06:30:47;;;;;;;22.85;19.48;;;;;;;13.51;83.23;95605.94;5118780;27;20199;-70
2022/10/12 06:33:15;;;;;;;21.33;18.83;;;;;;;13.55;82.97;95607.66;5136464;27;20224;-70
2022/10/12 06:35:42;;;;;;;19.98;18.08;;;;;;;13.61;82.98;95613.69;5118842;27;20199;-70
2022/10/12 06:38:08;;;;;;;20.33;18.27;;;;;;;13.63;82.70;95612.19;5136429;27;20183;-70
2022/10/12 06:40:35;;;;;;;20.08;18.17;;;;;;;13.64;82.38;95621.31;5136335;27;20187;-70
2022/10/12 06:43:02;;;;;;;19.20;17.20;;;;;;;13.68;82.24;95613.88;5136570;27;20179;-72
2022/10/12 06:45:29;;;;;;;18.60;16.67;;;;;;;13.68;81.83;95623.00;5118229;28;20199;-70
2022/10/12 06:47:56;;;;;;;19.50;17.58;;;;;;;13.70;81.95;95614.34;5136236;28;20215;-70
2022/10/12 06:50:25;;;;;;;18.33;16.42;;;;;;;13.70;81.50;95611.56;5136459;28;20187;-70
2022/10/12 06:52:52;;;;;;;17.75;16.02;;;;;;;13.74;81.78;95620.75;5136005;28;20243;-71
2022/10/12 06:55:19;;;;;;;19.38;17.17;;;;;;;13.77;81.67;95614.50;5136755;28;20198;-71
2022/10/12 06:57:46;;;;;;;18.75;16.77;;;;;;;13.81;81.54;95612.59;5118891;28;20199;-72
2022/10/12 07:00:14;;;;;;;18.77;16.83;;;;;;;13.84;81.62;95614.66;5118651;28;20209;-72
2022/10/12 07:02:40;;;;;;;19.00;17.17;;;;;;;13.91;81.54;95622.34;5136408;28;20187;-72
2022/10/12 07:05:08;;;;;;;19.55;17.45;;;;;;;13.94;81.41;95630.75;5118460;28;20269;-71
2022/10/12 07:07:37;;;;;;;20.10;16.88;;;;;;;13.97;81.12;95631.97;5118573;28;20213;-72
2022/10/12 07:10:05;;;;;;;19.83;17.83;;;;;;;13.96;81.07;95625.63;5136045;28;20235;-73
2022/10/12 07:12:32;;;;;;;19.63;16.83;;;;;;;13.97;80.71;95630.00;5118148;28;20769;-73
2022/10/12 07:14:59;;;;;;;19.80;17.50;;;;;;;13.97;80.61;95626.44;5118159;28;20191;-73
2022/10/12 07:17:26;;;;;;;20.83;18.63;;;;;;;13.99;80.61;95635.22;5138485;27;20195;-70
2022/10/12 07:19:53;;;;;;;20.58;17.77;;;;;;;14.01;80.99;95627.31;5140207;27;20244;-73
2022/10/12 07:22:19;;;;;;;20.52;17.15;;;;;;;14.02;80.90;95623.41;5140325;27;20176;-71
2022/10/12 07:24:48;;;;;;;20.98;17.35;;;;;;;14.05;80.83;95625.44;5140038;27;20202;-71
2022/10/12 07:27:15;;;;;;;19.02;17.02;;;;;;;14.07;80.64;95631.44;5140207;27;20210;-71
2022/10/12 07:29:42;;;;;;;20.65;18.45;;;;;;;14.08;80.74;95621.13;5121659;27;20210;-70
2022/10/12 07:32:09;;;;;;;21.02;18.85;;;;;;;14.11;80.81;95623.97;5140193;27;20252;-70
2022/10/12 07:34:36;;;;;;;21.33;19.33;;;;;;;14.12;80.50;95628.34;5139988;27;20247;-69
2022/10/12 07:37:03;;;;;;;22.15;19.85;;;;;;;14.13;80.41;95630.00;5122025;27;20198;-69
2022/10/12 07:39:29;;;;;;;26.77;23.75;;;;;;;14.14;80.09;95630.78;5121802;27;20198;-69
2022/10/12 07:41:58;;;;;;;28.75;25.88;;;;;;;14.17;80.17;95630.06;5121671;27;20211;-69
2022/10/12 07:44:25;;;;;;;28.60;25.67;;;;;;;14.17;80.07;95633.63;5121798;27;20209;-69
2022/10/12 07:46:52;;;;;;;26.20;23.25;;;;;;;14.17;80.16;95633.63;5139796;27;20190;-69
2022/10/12 07:49:19;;;;;;;23.13;20.73;;;;;;;14.20;80.29;95637.66;5121646;27;20211;-69
2022/10/12 07:51:48;;;;;;;22.08;19.90;;;;;;;14.19;80.10;95636.03;5139407;27;20630;-69
2022/10/12 07:54:15;;;;;;;22.55;20.15;;;;;;;14.19;79.61;95638.81;5120892;27;20238;-69
2022/10/12 07:56:42;;;;;;;22.55;20.10;;;;;;;14.20;79.73;95634.91;5121248;27;20214;-69
2022/10/12 07:59:10;;;;;;;22.83;20.25;;;;;;;14.21;79.64;95637.28;5121975;27;20202;-70
2022/10/12 08:01:37;;;;;;;22.85;20.65;;;;;;;14.20;79.76;95634.91;5121671;27;20191;-71
2022/10/12 08:04:04;;;;;;;23.35;20.90;;;;;;;14.23;79.80;95639.69;5139580;27;20183;-72
2022/10/12 08:06:33;;;;;;;25.10;21.33;;;;;;;14.23;79.35;95634.16;5139342;27;20194;-71
2022/10/12 08:09:00;;;;;;;26.83;22.50;;;;;;;14.23;79.27;95633.34;5139541;27;20218;-72
2022/10/12 08:11:27;;;;;;;25.30;22.10;;;;;;;14.24;79.54;95638.56;5139622;27;20194;-71
2022/10/12 08:13:54;;;;;;;24.70;22.10;;;;;;;14.26;79.60;95636.19;5139322;27;20599;-72
2022/10/12 08:16:23;;;;;;;25.73;22.52;;;;;;;14.29;79.49;95634.69;5121518;27;20229;-73
2022/10/12 08:18:50;;;;;;;23.63;20.80;;;;;;;14.29;79.56;95627.16;5121264;27;20206;-74
2022/10/12 08:21:17;;;;;;;25.40;22.05;;;;;;;14.31;79.60;95630.38;5121503;27;20195;-72
2022/10/12 08:23:45;;;;;;;26.00;22.10;;;;;;;14.33;79.16;95625.25;5121132;27;20595;-72
2022/10/12 08:26:12;;;;;;;25.17;21.98;;;;;;;14.36;79.27;95630.09;5121213;27;20191;-72
2022/10/12 08:28:39;;;;;;;26.63;21.70;;;;;;;14.41;79.70;95631.75;5138250;27;20210;-71
2022/10/12 08:31:08;;;;;;;29.73;22.50;;;;;;;14.43;79.31;95626.66;5121131;27;20202;-70
2022/10/12 08:33:36;;;;;;;27.67;24.60;;;;;;;14.45;79.40;95633.47;5120577;27;20614;-72
2022/10/12 08:36:04;;;;;;;28.33;23.73;;;;;;;14.48;79.54;95622.78;5120943;27;20610;-72
2022/10/12 08:38:31;;;;;;;28.35;24.08;;;;;;;14.50;79.49;95624.06;5120870;27;20199;-71
2022/10/12 08:41:03;;;;;;;27.13;23.55;;;;;;;14.55;79.72;95629.31;5138777;27;20202;-71
2022/10/12 08:43:42;;;;;;;29.05;23.90;;;;;;;14.59;79.75;95621.06;5120419;27;20218;-70
2022/10/12 08:46:11;;;;;;;27.20;21.92;;;;;;;14.60;79.57;95622.69;5120430;27;20206;-71
2022/10/12 08:48:46;;;;;;;27.48;22.17;;;;;;;14.62;79.64;95618.34;5121000;27;20215;-71
2022/10/12 08:51:15;;;;;;;26.58;22.08;;;;;;;14.64;79.13;95624.38;5138438;27;20193;-72
2022/10/12 08:53:47;;;;;;;26.10;22.08;;;;;;;14.67;79.40;95625.63;5138464;27;20226;-70
2022/10/12 08:56:16;;;;;;;24.42;20.92;;;;;;;14.69;79.23;95618.50;5138374;27;20187;-70
2022/10/12 08:58:43;;;;;;;19.85;16.83;;;;;;;14.72;78.46;95624.50;5138019;27;20186;-70
2022/10/12 09:01:15;;;;;;;20.50;15.32;;;;;;;14.72;77.98;95616.19;5120740;27;20191;-69
2022/10/12 09:03:50;;;;;;;19.92;16.50;;;;;;;14.75;77.30;95621.81;5138156;27;20202;-70
2022/10/12 09:06:19;;;;;;;29.80;26.77;;;;;;;14.79;76.97;95621.88;5119753;27;20198;-70
2022/10/12 09:08:56;;;;;;;23.88;21.38;;;;;;;14.80;76.63;95615.94;5138001;27;20649;-70
2022/10/12 09:11:44;;;;;;;23.75;21.42;;;;;;;14.83;76.19;95612.44;5120400;27;20190;-70
2022/10/12 09:14:16;;;;;;;21.77;16.67;;;;;;;14.86;75.93;95611.72;5137716;27;20194;-70
2022/10/12 09:16:44;;;;;;;16.05;14.07;;;;;;;14.88;76.01;95620.47;5120025;27;20203;-70
2022/10/12 09:19:19;;;;;;;18.20;14.57;;;;;;;14.88;75.46;95620.47;5137971;27;20603;-71
2022/10/12 09:21:47;;;;;;;15.40;13.18;;;;;;;14.88;75.30;95626.00;5120120;27;20186;-71
2022/10/12 09:24:17;;;;;;;14.77;12.95;;;;;;;14.84;74.96;95616.81;5120097;27;20183;-73
2022/10/12 09:26:44;;;;;;;14.15;12.23;;;;;;;14.87;75.14;95618.84;5119747;27;20206;-74
2022/10/12 09:29:22;;;;;;;14.35;12.60;;;;;;;14.87;75.30;95627.19;5137784;27;20202;-73
2022/10/12 09:32:05;;;;;;;15.35;12.68;;;;;;;14.89;75.15;95626.84;5120005;27;20222;-72
2022/10/12 09:34:33;;;;;;;12.65;11.25;;;;;;;14.88;74.86;95622.44;5119892;27;20194;-71
2022/10/12 09:37:02;;;;;;;14.13;12.63;;;;;;;14.91;74.58;95618.94;5119619;27;20201;-71
2022/10/12 09:39:30;;;;;;;14.82;11.85;;;;;;;14.93;74.84;95624.94;5119059;27;20532;-72
2022/10/12 09:41:57;;;;;;;13.93;12.48;;;;;;;14.98;75.15;95621.84;5137051;27;20205;-72
2022/10/12 09:44:29;;;;;;;14.75;11.73;;;;;;;15.02;74.48;95625.50;5128730;27;20646;-71
2022/10/12 09:46:58;;;;;;;15.73;13.75;;;;;;;15.08;75.55;95620.44;5137583;27;20179;-71
2022/10/12 09:49:41;;;;;;;17.00;13.93;;;;;;;15.09;75.14;95631.19;5111442;27;20230;-70
2022/10/12 09:52:08;;;;;;;15.40;12.90;;;;;;;15.12;74.91;95624.09;5119002;27;20191;-70
2022/10/12 09:54:36;;;;;;;13.98;11.98;;;;;;;15.14;74.31;95621.72;5137233;27;20532;-71
2022/10/12 09:57:03;;;;;;;14.27;12.82;;;;;;;15.14;74.43;95625.34;5119268;27;20191;-70
2022/10/12 09:59:33;;;;;;;13.90;12.07;;;;;;;15.10;74.09;95620.88;5119474;27;20637;-71
2022/10/12 10:02:10;;;;;;;15.20;11.77;;;;;;;15.03;73.81;95620.72;5137036;27;20496;-72
2022/10/12 10:04:37;;;;;;;15.32;12.50;;;;;;;15.01;73.71;95623.09;5120250;27;20222;-71
2022/10/12 10:07:24;;;;;;;13.80;12.20;;;;;;;15.02;74.18;95619.13;5137413;27;20194;-71
2022/10/12 10:10:14;;;;;;;13.25;11.77;;;;;;;15.01;74.07;95612.78;5137349;27;20199;-71
2022/10/12 10:12:44;;;;;;;13.75;11.75;;;;;;;15.03;74.45;95612.41;5118943;27;20212;-71
2022/10/12 10:15:20;;;;;;;13.93;12.55;;;;;;;15.06;75.15;95612.47;5136788;27;20198;-71
2022/10/12 10:17:48;;;;;;;13.35;11.55;;;;;;;15.11;75.15;95611.38;5119234;27;20197;-71
2022/10/12 10:20:24;;;;;;;15.90;10.95;;;;;;;15.13;75.25;95609.03;5136603;27;20175;-70
2022/10/12 10:22:52;;;;;;;14.63;12.20;;;;;;;15.09;74.38;95605.38;5136608;27;20527;-69
2022/10/12 10:25:21;;;;;;;15.98;12.40;;;;;;;15.08;74.90;95599.03;5136388;27;20213;-69
2022/10/12 10:27:49;;;;;;;17.63;13.20;;;;;;;15.11;74.61;95597.50;5136794;27;20202;-69
2022/10/12 10:30:22;;;;;;;15.75;12.38;;;;;;;15.12;74.42;95597.09;5136189;27;20275;-69
2022/10/12 10:32:49;;;;;;;14.27;12.77;;;;;;;15.16;74.40;95595.19;5118793;27;20536;-70
2022/10/12 10:35:21;;;;;;;15.98;11.93;;;;;;;15.23;74.18;95588.97;5136374;27;20195;-68
2022/10/12 10:37:50;;;;;;;14.38;12.18;;;;;;;15.26;73.57;95585.44;5136669;27;20239;-70
2022/10/12 10:40:23;;;;;;;13.10;11.55;;;;;;;15.26;73.57;95579.88;5136799;27;20190;-69
2022/10/12 10:42:50;;;;;;;12.85;11.52;;;;;;;15.30;73.27;95579.94;5136430;27;20179;-72
2022/10/12 10:45:23;;;;;;;12.30;11.05;;;;;;;15.34;73.33;95581.59;5136702;27;20225;-71
2022/10/12 10:47:53;;;;;;;12.27;11.15;;;;;;;15.37;73.02;95578.09;5136666;27;20202;-71
2022/10/12 10:50:25;;;;;;;12.23;10.93;;;;;;;15.39;72.97;95581.28;5136284;28;20263;-71
2022/10/12 10:52:55;;;;;;;12.45;10.75;;;;;;;15.47;73.11;95576.69;5142314;27;20265;-72
2022/10/12 10:55:27;;;;;;;12.18;10.98;;;;;;;15.49;72.46;95579.88;5125151;27;20191;-71
2022/10/12 10:57:59;;;;;;;11.95;10.80;;;;;;;15.47;72.12;95573.06;5143429;27;20190;-73
2022/10/12 11:00:27;;;;;;;12.10;10.88;;;;;;;15.41;72.38;95573.41;5124947;27;20183;-73
2022/10/12 11:02:55;;;;;;;11.52;9.95;;;;;;;15.40;72.25;95569.00;5125810;27;20499;-72
2022/10/12 11:05:24;;;;;;;12.05;10.70;;;;;;;15.39;72.62;95574.94;5124864;27;20516;-72
2022/10/12 11:07:54;;;;;;;12.15;10.88;;;;;;;15.37;72.60;95572.53;5143191;27;20179;-72
2022/10/12 11:10:28;;;;;;;11.38;10.32;;;;;;;15.40;72.47;95576.56;5125055;27;20206;-72
2022/10/12 11:13:01;;;;;;;11.18;10.07;;;;;;;15.39;71.42;95566.59;5143360;27;20198;-73
2022/10/12 11:15:34;;;;;;;11.02;9.85;;;;;;;15.42;71.27;95565.84;5125303;27;20205;-73
2022/10/12 11:18:11;;;;;;;12.73;10.75;;;;;;;15.41;71.14;95565.06;5125202;27;20626;-73
2022/10/12 11:20:47;;;;;;;11.88;10.63;;;;;;;15.45;71.64;95564.31;5124827;27;20191;-73
2022/10/12 11:23:19;;;;;;;11.55;10.45;;;;;;;15.53;71.70;95564.03;5143114;27;20182;-72
2022/10/12 11:25:58;;;;;;;17.75;15.95;;;;;;;15.58;71.86;95563.75;5125302;27;20187;-72